Current Weather

Brnsbl Muni-Bman/Pol Fd Ap

Brnsbl Muni-Bman/Pol Fd Ap, Massachusetts (KHYA)

Report from: Sunday, May 22, 2022 3:56 AM EDT
Current time: Sunday, May 22, 2022 4:09 AM EDT

Nearby weather
Weather history
Weather forecast

Temperature16.7°C (62.1°F)
Dew point14.4°C (57.9°F)
Winds 5 kts (2.6 m/s, 5.8 mph) South-Southwest (200°)
Visibility7 mi. (11.3 km)
Clouds Sky clear
Altimeter30.00 in.Hg (1016 mB)
Relative humidity86 %
Density altitude337 ft. (103 m)
Sea-level pressure101.6 kPa (1016 mB, 30.00 in.Hg)
Remarks Fully automated report
Automated weather observing station with precipitation discriminator
Flight conditions Visual Meteorological Conditions
Raw dataKHYA 220756Z AUTO 20005KT 7SM CLR 17/14 A3000 RMK AO2 SLP160 T01670144
An error has occurred. This application may no longer respond until reloaded. Reload 🗙